Time;durP1;ratioP1;P1;durP2;ratioP2;P2;SDS_P1;SDS_P2;PMS_P1;PMS_P2;Temp;Humidity;BMP_temperature;BMP_pressure;BME280_temperature;BME280_humidity;BME280_pressure;Samples;Min_cycle;Max_cycle;Signal;HPM_P1;HPM_P2
2023/10/08 00:00:55;;;;;;;9.88;7.22;;;;;;;;;;5097787;28;20469;-74
2023/10/08 00:03:21;;;;;;;15.85;9.88;;;;;;;;;;5098415;28;20040;-75
2023/10/08 00:05:47;;;;;;;11.57;8.13;;;;;;;;;;5098732;28;20046;-73
2023/10/08 00:08:16;;;;;;;11.35;9.15;;;;;;;;;;5097688;28;20036;-74
2023/10/08 00:10:42;;;;;;;16.27;10.80;;;;;;;;;;5094372;28;20061;-76
2023/10/08 00:13:09;;;;;;;13.20;10.20;;;;;;;;;;5097624;28;20023;-73
2023/10/08 00:15:37;;;;;;;10.07;8.20;;;;;;;;;;5098520;28;20031;-74
2023/10/08 00:18:05;;;;;;;12.73;8.70;;;;;;;;;;5089735;28;20039;-74
2023/10/08 00:20:48;;;;;;;11.40;7.60;;;;;;;;;;5094828;28;20039;-75
2023/10/08 00:23:17;;;;;;;13.85;7.70;;;;;;;;;;5096818;28;20031;-74
2023/10/08 00:25:46;;;;;;;14.23;9.80;;;;;;;;;;5099639;28;20019;-73
2023/10/08 00:28:13;;;;;;;15.20;9.57;;;;;;;;;;5100918;28;20345;-73
2023/10/08 00:30:40;;;;;;;11.63;8.77;;;;;;;;;;5099493;28;20048;-74
2023/10/08 00:33:05;;;;;;;9.95;7.78;;;;;;;;;;5099936;28;20103;-74
2023/10/08 00:35:30;;;;;;;13.50;9.48;;;;;;;;;;5099426;28;20130;-74
2023/10/08 00:38:00;;;;;;;13.43;9.88;;;;;;;;;;5096986;28;20035;-74
2023/10/08 00:40:35;;;;;;;12.00;7.80;;;;;;;;;;5097086;28;20041;-73
2023/10/08 00:43:03;;;;;;;14.05;10.30;;;;;;;;;;5099696;28;20035;-73
2023/10/08 00:45:30;;;;;;;13.30;7.95;;;;;;;;;;5096892;28;20024;-73
2023/10/08 00:47:56;;;;;;;9.48;7.05;;;;;;;;;;5090217;28;20031;-72
2023/10/08 00:50:31;;;;;;;13.52;9.70;;;;;;;;;;5092558;28;20039;-73
2023/10/08 00:53:00;;;;;;;12.20;9.23;;;;;;;;;;5096207;27;20064;-73
2023/10/08 00:55:29;;;;;;;12.43;8.90;;;;;;;;;;5096881;28;20080;-73
2023/10/08 00:57:58;;;;;;;13.85;10.77;;;;;;;;;;5097578;28;20063;-73
2023/10/08 01:00:32;;;;;;;13.07;10.37;;;;;;;;;;5095239;28;20034;-73
2023/10/08 01:03:00;;;;;;;11.98;9.38;;;;;;;;;;5097034;28;20957;-74
2023/10/08 01:05:41;;;;;;;11.07;9.13;;;;;;;;;;5094619;27;20011;-74
2023/10/08 01:08:07;;;;;;;16.75;10.43;;;;;;;;;;5098684;28;20087;-73
2023/10/08 01:10:33;;;;;;;14.65;10.05;;;;;;;;;;5095594;28;20514;-74
2023/10/08 01:15:30;;;;;;;11.02;9.38;;;;;;;;;;5096732;28;20063;-73
2023/10/08 01:18:08;;;;;;;14.93;8.93;;;;;;;;;;5083920;28;20032;-73
2023/10/08 01:20:34;;;;;;;13.57;8.63;;;;;;;;;;5087225;28;20100;-75
2023/10/08 01:23:09;;;;;;;10.75;8.88;;;;;;;;;;5095520;28;20023;-74
2023/10/08 01:25:35;;;;;;;9.38;8.32;;;;;;;;;;5096307;28;20020;-75
2023/10/08 01:28:01;;;;;;;10.75;7.93;;;;;;;;;;5095026;28;20042;-73
2023/10/08 01:30:34;;;;;;;12.85;7.93;;;;;;;;;;5097225;28;20122;-72
2023/10/08 01:33:02;;;;;;;10.45;7.30;;;;;;;;;;5098110;28;20063;-74
2023/10/08 01:35:27;;;;;;;10.10;6.47;;;;;;;;;;5095500;28;20142;-73
2023/10/08 01:37:56;;;;;;;11.68;6.70;;;;;;;;;;5087487;28;20103;-73
2023/10/08 01:40:21;;;;;;;10.88;7.90;;;;;;;;;;5095177;28;20031;-72
2023/10/08 01:42:50;;;;;;;13.52;9.60;;;;;;;;;;5097445;28;20036;-75
2023/10/08 01:45:17;;;;;;;14.48;9.48;;;;;;;;;;5096890;28;20020;-72
2023/10/08 01:47:43;;;;;;;11.88;9.88;;;;;;;;;;5082578;28;20108;-75
2023/10/08 01:50:21;;;;;;;13.27;9.50;;;;;;;;;;5093420;28;20102;-73
2023/10/08 01:52:46;;;;;;;9.75;8.35;;;;;;;;;;5094233;28;20535;-73
2023/10/08 01:55:17;;;;;;;10.48;7.25;;;;;;;;;;5096316;28;20012;-73
2023/10/08 01:57:43;;;;;;;11.75;8.35;;;;;;;;;;5096662;28;20027;-73
2023/10/08 02:00:09;;;;;;;9.07;7.13;;;;;;;;;;5096391;28;20081;-73
2023/10/08 02:02:34;;;;;;;9.73;7.78;;;;;;;;;;5096585;28;20122;-72
2023/10/08 02:05:00;;;;;;;14.13;8.10;;;;;;;;;;5093142;28;20096;-72
2023/10/08 02:07:25;;;;;;;12.25;7.68;;;;;;;;;;5092015;28;20463;-73
2023/10/08 02:09:50;;;;;;;9.30;7.45;;;;;;;;;;5090140;28;20023;-72
2023/10/08 02:12:16;;;;;;;23.55;17.60;;;;;;;;;;5112596;27;20031;-73
2023/10/08 02:14:41;;;;;;;21.42;13.18;;;;;;;;;;5095737;28;20073;-73
2023/10/08 02:17:09;;;;;;;15.27;9.63;;;;;;;;;;5093805;28;20031;-73
2023/10/08 02:19:36;;;;;;;11.10;8.98;;;;;;;;;;5081571;28;20438;-76
2023/10/08 02:22:05;;;;;;;10.35;8.52;;;;;;;;;;5082929;28;20031;-72
2023/10/08 02:24:30;;;;;;;11.13;9.07;;;;;;;;;;5098684;28;20138;-74
2023/10/08 02:26:57;;;;;;;11.15;8.68;;;;;;;;;;5092616;28;20734;-74
2023/10/08 02:29:25;;;;;;;12.70;8.88;;;;;;;;;;5096355;28;20119;-73
2023/10/08 02:31:52;;;;;;;14.40;9.63;;;;;;;;;;5089221;28;20062;-74
2023/10/08 02:34:19;;;;;;;14.68;9.18;;;;;;;;;;5092121;28;20116;-73
2023/10/08 02:36:46;;;;;;;13.32;9.35;;;;;;;;;;5081079;28;20027;-74
2023/10/08 02:39:21;;;;;;;10.60;9.05;;;;;;;;;;5083625;28;20061;-75
2023/10/08 02:41:47;;;;;;;12.48;9.93;;;;;;;;;;5093982;28;20035;-73
2023/10/08 02:44:14;;;;;;;12.02;9.77;;;;;;;;;;5096328;28;20359;-73
2023/10/08 02:46:40;;;;;;;15.80;10.00;;;;;;;;;;5085027;28;20019;-74
2023/10/08 02:49:10;;;;;;;13.10;9.60;;;;;;;;;;5084792;28;20059;-72
2023/10/08 02:51:35;;;;;;;12.25;9.18;;;;;;;;;;5094842;28;20051;-73
2023/10/08 02:54:05;;;;;;;11.88;9.40;;;;;;;;;;5097792;28;20477;-73
2023/10/08 02:56:32;;;;;;;;;;;;;;;;;;5095050;28;20039;-73
2023/10/08 02:58:57;;;;;;;13.52;10.05;;;;;;;;;;5094562;28;19930;-73
2023/10/08 03:01:22;;;;;;;14.27;10.00;;;;;;;;;;5084345;28;20028;-75
2023/10/08 03:03:48;;;;;;;15.07;11.20;;;;;;;;;;5095087;28;20016;-73
2023/10/08 03:06:14;;;;;;;16.98;12.93;;;;;;;;;;5092395;28;20016;-72
2023/10/08 03:08:41;;;;;;;16.73;12.38;;;;;;;;;;5094597;28;20024;-76
2023/10/08 03:11:16;;;;;;;17.25;11.80;;;;;;;;;;5097418;28;20008;-72
2023/10/08 03:13:42;;;;;;;14.02;10.85;;;;;;;;;;5095584;28;20070;-72
2023/10/08 03:16:13;;;;;;;12.65;8.52;;;;;;;;;;5092608;28;20351;-71
2023/10/08 03:18:49;;;;;;;12.35;8.05;;;;;;;;;;5096602;28;20036;-71
2023/10/08 03:21:33;;;;;;;12.20;9.60;;;;;;;;;;5095494;28;20035;-71
2023/10/08 03:23:58;;;;;;;11.77;9.52;;;;;;;;;;5083790;28;20574;-71
2023/10/08 03:26:33;;;;;;;11.30;8.82;;;;;;;;;;5094593;28;20451;-72
2023/10/08 03:29:07;;;;;;;11.65;8.77;;;;;;;;;;5096603;28;20024;-71
2023/10/08 03:31:49;;;;;;;10.48;7.72;;;;;;;;;;5095705;28;20039;-73
2023/10/08 03:34:18;;;;;;;12.85;8.75;;;;;;;;;;5095655;28;20035;-72
2023/10/08 03:36:46;;;;;;;10.30;7.72;;;;;;;;;;5100541;28;20100;-71
2023/10/08 03:39:15;;;;;;;12.77;9.50;;;;;;;;;;5099843;28;20040;-74
2023/10/08 03:41:41;;;;;;;12.02;8.50;;;;;;;;;;5095839;28;20030;-71
2023/10/08 03:44:12;;;;;;;9.75;8.18;;;;;;;;;;5098806;28;20032;-73
2023/10/08 03:46:42;;;;;;;13.85;7.70;;;;;;;;;;5098043;28;20034;-73
2023/10/08 03:51:51;;;;;;;15.27;8.52;;;;;;;;;;5100266;28;20053;-75
2023/10/08 03:54:18;;;;;;;9.50;8.23;;;;;;;;;;5097615;28;20035;-74
2023/10/08 03:56:51;;;;;;;10.13;8.43;;;;;;;;;;5096841;28;20084;-73
2023/10/08 03:59:31;;;;;;;14.10;9.43;;;;;;;;;;5096393;28;20362;-72
2023/10/08 04:02:00;;;;;;;10.50;7.47;;;;;;;;;;5099146;28;20119;-75
2023/10/08 04:04:48;;;;;;;12.25;7.47;;;;;;;;;;5097267;28;20169;-74
2023/10/08 04:12:34;;;;;;;12.35;9.23;;;;;;;;;;5099380;28;20067;-75
2023/10/08 04:15:00;;;;;;;13.57;9.83;;;;;;;;;;5095086;28;20012;-75
2023/10/08 04:17:26;;;;;;;11.30;7.93;;;;;;;;;;5087579;28;20031;-73
2023/10/08 04:19:51;;;;;;;11.38;8.20;;;;;;;;;;5098230;27;20366;-75
2023/10/08 04:22:18;;;;;;;12.90;8.52;;;;;;;;;;5088318;28;20439;-72
2023/10/08 04:24:44;;;;;;;11.45;7.38;;;;;;;;;;5099577;28;20391;-73
2023/10/08 04:27:09;;;;;;;11.00;7.75;;;;;;;;;;5095821;28;20056;-72
2023/10/08 04:29:37;;;;;;;10.95;8.13;;;;;;;;;;5097372;28;20072;-75
2023/10/08 04:32:12;;;;;;;11.65;8.52;;;;;;;;;;5098811;28;20011;-73
2023/10/08 04:34:38;;;;;;;9.25;7.45;;;;;;;;;;5099210;28;20094;-75
2023/10/08 04:37:11;;;;;;;12.05;8.85;;;;;;;;;;5099366;28;20757;-72
2023/10/08 04:39:39;;;;;;;11.15;8.32;;;;;;;;;;5096314;28;20016;-74
2023/10/08 04:42:10;;;;;;;9.98;7.80;;;;;;;;;;5096458;28;20032;-75
2023/10/08 04:44:39;;;;;;;9.85;8.02;;;;;;;;;;5089120;28;20084;-73
2023/10/08 04:47:04;;;;;;;11.77;8.27;;;;;;;;;;5089222;28;20043;-73
2023/10/08 04:49:32;;;;;;;11.43;8.40;;;;;;;;;;5099064;28;20659;-73
2023/10/08 04:52:05;;;;;;;12.27;9.00;;;;;;;;;;5097250;28;20186;-74
2023/10/08 04:54:30;;;;;;;12.48;9.73;;;;;;;;;;5092459;28;20019;-73
2023/10/08 04:56:59;;;;;;;15.30;8.75;;;;;;;;;;5088707;28;20028;-75
2023/10/08 04:59:32;;;;;;;10.93;8.73;;;;;;;;;;5097551;28;20066;-74
2023/10/08 05:12:37;;;;;;;11.23;7.82;;;;;;;;;;5084429;28;20036;-74
2023/10/08 05:17:56;;;;;;;10.70;7.55;;;;;;;;;;5095843;28;20449;-73
2023/10/08 05:23:53;;;;;;;9.88;7.13;;;;;;;;;;5086163;28;20039;-72
2023/10/08 05:30:10;;;;;;;19.73;8.45;;;;;;;;;;5081523;28;20500;-75
2023/10/08 05:31:47;;;;;;;17.80;9.25;;;;;;;;;;5075589;28;20400;-73
2023/10/08 05:34:18;;;;;;;25.10;15.60;;;;;;;;;;5082880;28;20048;-73
2023/10/08 05:39:40;;;;;;;22.10;16.02;;;;;;;;;;5082892;28;20063;-72
2023/10/08 05:43:00;;;;;;;25.17;18.17;;;;;;;;;;5082919;28;20047;-75
2023/10/08 05:52:53;;;;;;;10.82;8.50;;;;;;;;;;5091967;28;20089;-74
2023/10/08 05:55:28;;;;;;;9.18;7.75;;;;;;;;;;5092119;28;20431;-75
2023/10/08 05:58:13;;;;;;;11.68;8.73;;;;;;;;;;5094873;28;20038;-70
2023/10/08 06:06:37;;;;;;;13.23;7.50;;;;;;;;;;5070346;28;20058;-77
2023/10/08 06:11:44;;;;;;;24.58;12.05;;;;;;;;;;5068007;28;20122;-73
2023/10/08 06:14:13;;;;;;;15.85;9.80;;;;;;;;;;5080156;28;20915;-73
2023/10/08 06:16:43;;;;;;;13.02;7.72;;;;;;;;;;5084168;28;20024;-71
2023/10/08 06:19:12;;;;;;;12.43;7.88;;;;;;;;;;5084185;28;20028;-72
2023/10/08 06:21:39;;;;;;;18.35;13.68;;;;;;;;;;5088016;28;20046;-72
2023/10/08 06:24:08;;;;;;;19.38;14.43;;;;;;;;;;5091476;28;20020;-73
2023/10/08 06:26:38;;;;;;;14.45;11.38;;;;;;;;;;5094827;28;20040;-72
2023/10/08 06:29:18;;;;;;;12.30;9.75;;;;;;;;;;5096822;28;20036;-73
2023/10/08 06:31:50;;;;;;;17.50;13.43;;;;;;;;;;5097436;28;20031;-75
2023/10/08 06:34:16;;;;;;;42.90;28.45;;;;;;;;;;5092209;28;20047;-76
2023/10/08 06:36:41;;;;;;;49.00;22.42;;;;;;;;;;5085872;28;20089;-76
2023/10/08 06:39:11;;;;;;;34.10;20.00;;;;;;;;;;5092032;28;20040;-73
2023/10/08 06:41:37;;;;;;;25.92;18.45;;;;;;;;;;5095728;28;20411;-75
2023/10/08 06:44:02;;;;;;;18.80;14.15;;;;;;;;;;5095086;28;20034;-74
2023/10/08 06:46:29;;;;;;;17.10;12.07;;;;;;;;;;5095242;28;20075;-76
2023/10/08 06:48:54;;;;;;;15.25;10.48;;;;;;;;;;5096825;28;20038;-73
2023/10/08 06:51:19;;;;;;;10.98;8.75;;;;;;;;;;5097227;28;20024;-74
2023/10/08 06:53:45;;;;;;;10.05;6.65;;;;;;;;;;5094752;28;20122;-73
2023/10/08 06:56:12;;;;;;;41.60;26.45;;;;;;;;;;5075914;28;20024;-75
2023/10/08 06:58:38;;;;;;;12.25;8.70;;;;;;;;;;5070701;28;20116;-77
2023/10/08 07:01:08;;;;;;;11.45;7.13;;;;;;;;;;5075962;28;20028;-74
2023/10/08 07:03:34;;;;;;;54.92;41.63;;;;;;;;;;5074160;28;20066;-73
2023/10/08 07:06:00;;;;;;;29.30;22.23;;;;;;;;;;5084343;28;20027;-73
2023/10/08 07:08:35;;;;;;;23.27;18.05;;;;;;;;;;5091650;28;20123;-73
2023/10/08 07:11:04;;;;;;;21.23;16.60;;;;;;;;;;5097370;28;20031;-74
2023/10/08 07:13:30;;;;;;;42.92;33.00;;;;;;;;;;5094732;28;20023;-75
2023/10/08 07:15:56;;;;;;;18.27;13.32;;;;;;;;;;5093176;28;20028;-74
2023/10/08 07:18:25;;;;;;;27.70;20.00;;;;;;;;;;5085979;28;20036;-74
2023/10/08 07:20:54;;;;;;;14.80;11.38;;;;;;;;;;5095082;28;20455;-73
2023/10/08 07:23:25;;;;;;;14.88;10.40;;;;;;;;;;5093524;28;20436;-74
2023/10/08 07:26:11;;;;;;;15.13;9.73;;;;;;;;;;5094056;28;20027;-74
2023/10/08 07:28:42;;;;;;;24.10;21.45;;;;;;;;;;5079549;28;20081;-75
2023/10/08 07:31:15;;;;;;;13.95;11.35;;;;;;;;;;5092225;28;20031;-74
2023/10/08 07:33:43;;;;;;;13.05;10.65;;;;;;;;;;5095952;28;20035;-77
2023/10/08 07:36:14;;;;;;;14.57;10.30;;;;;;;;;;5096514;28;20081;-74
2023/10/08 07:38:42;;;;;;;13.00;8.55;;;;;;;;;;5096033;28;20024;-74
2023/10/08 07:41:07;;;;;;;8.13;7.32;;;;;;;;;;5083866;28;20106;-74
2023/10/08 07:43:33;;;;;;;8.38;7.57;;;;;;;;;;5094999;28;20102;-76
2023/10/08 07:46:00;;;;;;;12.13;10.85;;;;;;;;;;5095639;28;20032;-74
2023/10/08 07:48:29;;;;;;;8.23;6.75;;;;;;;;;;5095980;28;20036;-73
2023/10/08 07:50:55;;;;;;;10.02;6.78;;;;;;;;;;5096453;28;20027;-76
2023/10/08 07:53:20;;;;;;;8.68;6.10;;;;;;;;;;5095606;28;20088;-73
2023/10/08 07:55:49;;;;;;;12.07;6.07;;;;;;;;;;5128465;27;20379;-72
2023/10/08 07:58:14;;;;;;;7.55;5.78;;;;;;;;;;5097304;28;20035;-72
2023/10/08 08:00:42;;;;;;;7.75;5.80;;;;;;;;;;5095170;28;20359;-72
2023/10/08 08:03:07;;;;;;;10.20;6.88;;;;;;;;;;5095952;28;20023;-72
2023/10/08 08:05:33;;;;;;;7.40;5.95;;;;;;;;;;5095120;28;20032;-75
2023/10/08 08:08:05;;;;;;;8.13;5.70;;;;;;;;;;5093558;28;20071;-73
2023/10/08 08:10:36;;;;;;;9.73;5.95;;;;;;;;;;5094747;28;20415;-74
2023/10/08 08:13:05;;;;;;;7.00;5.72;;;;;;;;;;5076149;28;20111;-73
2023/10/08 08:15:30;;;;;;;9.45;6.50;;;;;;;;;;5071990;28;20020;-72
2023/10/08 08:17:55;;;;;;;6.53;5.72;;;;;;;;;;5078364;28;20027;-71
2023/10/08 08:20:34;;;;;;;9.93;5.45;;;;;;;;;;5084503;28;20031;-73
2023/10/08 08:23:06;;;;;;;6.75;4.85;;;;;;;;;;5082748;28;20478;-76
2023/10/08 08:25:42;;;;;;;6.72;5.35;;;;;;;;;;5088295;28;20036;-72
2023/10/08 08:28:16;;;;;;;5.70;4.93;;;;;;;;;;5098506;28;20427;-71
2023/10/08 08:30:46;;;;;;;11.30;5.28;;;;;;;;;;5088284;28;20449;-72
2023/10/08 08:33:11;;;;;;;6.35;5.55;;;;;;;;;;5084067;28;20023;-72
2023/10/08 08:35:37;;;;;;;8.00;4.65;;;;;;;;;;5080903;28;20055;-73
2023/10/08 08:38:05;;;;;;;8.93;5.60;;;;;;;;;;5092018;28;20042;-71
2023/10/08 08:40:32;;;;;;;7.95;5.15;;;;;;;;;;5082000;28;20352;-71
2023/10/08 08:42:58;;;;;;;6.60;5.03;;;;;;;;;;5072216;28;20038;-78
2023/10/08 08:45:26;;;;;;;8.77;5.95;;;;;;;;;;5075750;28;20020;-73
2023/10/08 08:47:52;;;;;;;6.43;5.53;;;;;;;;;;5074256;28;20348;-73
2023/10/08 08:50:19;;;;;;;8.32;5.07;;;;;;;;;;5074975;28;20085;-80
2023/10/08 08:52:45;;;;;;;6.78;5.30;;;;;;;;;;5095062;28;20091;-73
2023/10/08 08:55:14;;;;;;;7.50;5.85;;;;;;;;;;5098592;28;20028;-70
2023/10/08 08:57:50;;;;;;;8.55;5.50;;;;;;;;;;5096641;28;20093;-72
2023/10/08 09:00:16;;;;;;;6.80;5.70;;;;;;;;;;5075947;28;20445;-73
2023/10/08 09:02:44;;;;;;;21.60;13.52;;;;;;;;;;5069654;28;20023;-73
2023/10/08 09:05:13;;;;;;;15.07;10.43;;;;;;;;;;5068049;28;20099;-71
2023/10/08 09:07:39;;;;;;;;;;;;;;;;;;5073344;28;20476;-72
2023/10/08 09:10:08;;;;;;;6.90;5.50;;;;;;;;;;5071073;28;19911;-71
2023/10/08 09:12:33;;;;;;;9.82;5.50;;;;;;;;;;5079111;28;20045;-71
2023/10/08 09:15:04;;;;;;;6.97;5.63;;;;;;;;;;5081255;28;20032;-75
2023/10/08 09:17:29;;;;;;;7.15;5.95;;;;;;;;;;5080874;28;20081;-71
2023/10/08 09:19:54;;;;;;;11.18;6.50;;;;;;;;;;5079313;28;21075;-75
2023/10/08 09:22:21;;;;;;;7.05;5.80;;;;;;;;;;5079437;28;20028;-71
2023/10/08 09:24:47;;;;;;;9.05;5.70;;;;;;;;;;5082545;28;20529;-71
2023/10/08 09:27:14;;;;;;;6.60;5.40;;;;;;;;;;5079257;28;20062;-73
2023/10/08 09:29:39;;;;;;;10.05;5.30;;;;;;;;;;5075261;28;20074;-76
2023/10/08 09:32:06;;;;;;;7.20;6.10;;;;;;;;;;5078028;28;20443;-73
2023/10/08 09:34:32;;;;;;;7.22;5.63;;;;;;;;;;5069268;28;20039;-73
2023/10/08 09:36:59;;;;;;;8.25;5.32;;;;;;;;;;5071287;28;20068;-72
2023/10/08 09:39:26;;;;;;;6.25;5.22;;;;;;;;;;5070732;28;20128;-74
2023/10/08 09:41:55;;;;;;;6.53;5.82;;;;;;;;;;5074713;28;20039;-73
2023/10/08 09:44:21;;;;;;;7.13;6.13;;;;;;;;;;5089735;28;20114;-77
2023/10/08 09:46:51;;;;;;;9.98;7.47;;;;;;;;;;5074058;28;20334;-72
2023/10/08 09:49:18;;;;;;;7.82;7.00;;;;;;;;;;5084886;28;20096;-72
2023/10/08 09:51:45;;;;;;;8.27;5.65;;;;;;;;;;5097952;28;20067;-72
2023/10/08 09:54:13;;;;;;;7.22;5.68;;;;;;;;;;5096450;28;20434;-72
2023/10/08 09:56:39;;;;;;;7.13;5.65;;;;;;;;;;5085647;28;20858;-72
2023/10/08 09:59:05;;;;;;;5.40;4.72;;;;;;;;;;5073827;28;20507;-72
2023/10/08 10:01:34;;;;;;;7.53;5.32;;;;;;;;;;5088407;27;20106;-74
2023/10/08 10:03:59;;;;;;;8.02;4.93;;;;;;;;;;5096371;28;20052;-72
2023/10/08 10:06:26;;;;;;;6.95;5.40;;;;;;;;;;5096580;28;20353;-73
2023/10/08 10:08:55;;;;;;;6.35;4.45;;;;;;;;;;5098100;28;20037;-78
2023/10/08 10:11:26;;;;;;;7.68;5.63;;;;;;;;;;5094560;28;20031;-72
2023/10/08 10:13:59;;;;;;;7.45;4.47;;;;;;;;;;5083935;28;20031;-76
2023/10/08 10:16:26;;;;;;;8.80;5.18;;;;;;;;;;5080932;28;20020;-72
2023/10/08 10:18:56;;;;;;;6.50;5.10;;;;;;;;;;5073852;28;22845;-72
2023/10/08 10:21:27;;;;;;;6.75;4.95;;;;;;;;;;5081602;28;20034;-72
2023/10/08 10:23:53;;;;;;;7.63;5.13;;;;;;;;;;5073768;28;20024;-71
2023/10/08 10:26:33;;;;;;;5.30;4.72;;;;;;;;;;5073265;28;20031;-75
2023/10/08 10:29:14;;;;;;;6.60;5.40;;;;;;;;;;5076133;28;20348;-77
2023/10/08 10:31:53;;;;;;;6.43;4.93;;;;;;;;;;5082808;28;20120;-76
2023/10/08 10:34:19;;;;;;;5.78;5.15;;;;;;;;;;5093543;28;20324;-71
2023/10/08 10:36:49;;;;;;;7.10;4.97;;;;;;;;;;5076111;28;20028;-75
2023/10/08 10:39:26;;;;;;;7.93;5.00;;;;;;;;;;5073894;28;20027;-72
2023/10/08 10:41:55;;;;;;;18.08;11.15;;;;;;;;;;5075382;28;20061;-71
2023/10/08 10:44:21;;;;;;;7.05;5.35;;;;;;;;;;5089344;28;20400;-73
2023/10/08 10:47:25;;;;;;;6.15;4.95;;;;;;;;;;5082760;28;20118;-76
2023/10/08 10:49:47;;;;;;;7.05;5.65;;;;;;;;;;5095580;28;20035;-74
2023/10/08 10:52:17;;;;;;;7.72;5.28;;;;;;;;;;5095552;28;20027;-74
2023/10/08 10:54:58;;;;;;;6.75;4.65;;;;;;;;;;5097675;28;20100;-73
2023/10/08 10:57:26;;;;;;;7.63;6.10;;;;;;;;;;5082145;28;20027;-76
2023/10/08 10:59:55;;;;;;;7.07;5.70;;;;;;;;;;5084883;28;20113;-78
2023/10/08 11:02:30;;;;;;;8.57;4.93;;;;;;;;;;5075846;28;20051;-78
2023/10/08 11:04:59;;;;;;;6.20;5.43;;;;;;;;;;5076631;28;20070;-71
2023/10/08 11:07:25;;;;;;;5.68;5.05;;;;;;;;;;5091011;28;20085;-77
2023/10/08 11:09:52;;;;;;;6.28;4.75;;;;;;;;;;5095311;28;20093;-72
2023/10/08 11:12:42;;;;;;;7.30;5.38;;;;;;;;;;5093242;28;20027;-71
2023/10/08 11:15:05;;;;;;;7.75;5.50;;;;;;;;;;5092953;28;20355;-71
2023/10/08 11:17:31;;;;;;;6.00;5.25;;;;;;;;;;5094632;28;20024;-72
2023/10/08 11:19:57;;;;;;;5.97;4.93;;;;;;;;;;5079805;28;20035;-74
2023/10/08 11:22:22;;;;;;;6.20;4.38;;;;;;;;;;5079355;28;20030;-76
2023/10/08 11:24:48;;;;;;;5.65;4.50;;;;;;;;;;5095182;28;20029;-72
2023/10/08 11:27:17;;;;;;;6.22;4.70;;;;;;;;;;5097079;28;20201;-72
2023/10/08 11:29:59;;;;;;;6.32;4.63;;;;;;;;;;5086234;28;20020;-74
2023/10/08 11:32:25;;;;;;;5.85;4.70;;;;;;;;;;5076511;28;20024;-72
2023/10/08 11:34:59;;;;;;;5.85;4.88;;;;;;;;;;5082239;28;20057;-71
2023/10/08 11:37:28;;;;;;;5.57;4.03;;;;;;;;;;5092475;28;20213;-71
2023/10/08 11:39:57;;;;;;;5.32;4.45;;;;;;;;;;5096710;28;21265;-71
2023/10/08 11:42:40;;;;;;;5.15;4.35;;;;;;;;;;5095306;28;20035;-74
2023/10/08 11:45:28;;;;;;;5.70;4.40;;;;;;;;;;5096499;28;20064;-74
2023/10/08 11:47:55;;;;;;;6.30;4.78;;;;;;;;;;5095634;28;20130;-71
2023/10/08 11:50:21;;;;;;;;;;;;;;;;;;5096679;28;20111;-73
2023/10/08 11:52:46;;;;;;;7.47;5.73;;;;;;;;;;5101160;28;20026;-74
2023/10/08 11:55:18;;;;;;;7.50;4.97;;;;;;;;;;5097080;28;20088;-74
2023/10/08 11:57:45;;;;;;;8.13;5.22;;;;;;;;;;5100659;28;20043;-73
2023/10/08 12:00:19;;;;;;;8.27;4.93;;;;;;;;;;5097009;28;20089;-76
2023/10/08 12:02:48;;;;;;;8.32;6.38;;;;;;;;;;5082540;28;20450;-75
2023/10/08 12:05:19;;;;;;;7.63;5.43;;;;;;;;;;5075182;28;20037;-75
2023/10/08 12:07:48;;;;;;;5.43;4.00;;;;;;;;;;5076976;28;20023;-74
2023/10/08 12:10:16;;;;;;;8.90;5.35;;;;;;;;;;5068875;28;20028;-79
2023/10/08 12:12:41;;;;;;;7.32;4.80;;;;;;;;;;5072568;28;20028;-74
2023/10/08 12:15:09;;;;;;;7.45;4.65;;;;;;;;;;5074574;28;20351;-76
2023/10/08 12:17:39;;;;;;;6.35;4.70;;;;;;;;;;5072894;28;20020;-79
2023/10/08 12:20:22;;;;;;;7.22;6.13;;;;;;;;;;5078475;28;20123;-78
2023/10/08 12:22:48;;;;;;;7.63;5.45;;;;;;;;;;5080058;28;20105;-75
2023/10/08 12:25:13;;;;;;;7.10;5.07;;;;;;;;;;5079389;28;20028;-78
2023/10/08 12:27:39;;;;;;;9.05;4.95;;;;;;;;;;5077411;28;20039;-74
2023/10/08 12:30:09;;;;;;;5.88;4.95;;;;;;;;;;5075855;28;20077;-74
2023/10/08 12:32:37;;;;;;;10.07;5.85;;;;;;;;;;5074393;28;20035;-77
2023/10/08 12:35:03;;;;;;;9.00;5.40;;;;;;;;;;5070401;28;20455;-81
2023/10/08 12:37:30;;;;;;;10.95;6.18;;;;;;;;;;5073776;28;20039;-79
2023/10/08 12:40:11;;;;;;;7.75;5.72;;;;;;;;;;5069723;28;20020;-80
2023/10/08 12:42:36;;;;;;;7.82;5.65;;;;;;;;;;5072363;28;20028;-83
2023/10/08 12:45:11;;;;;;;8.40;5.38;;;;;;;;;;5072754;28;20027;-74
2023/10/08 12:47:37;;;;;;;8.00;5.35;;;;;;;;;;5075958;28;20094;-75
2023/10/08 12:50:07;;;;;;;8.35;5.55;;;;;;;;;;5074472;28;20101;-77
2023/10/08 12:52:34;;;;;;;6.60;5.10;;;;;;;;;;5072362;28;20047;-81
2023/10/08 12:55:03;;;;;;;8.25;5.43;;;;;;;;;;5072775;28;20533;-75
2023/10/08 12:57:34;;;;;;;;;;;;;;;;;;5071715;28;20058;-75
2023/10/08 13:00:00;;;;;;;11.02;6.57;;;;;;;;;;5073238;28;19908;-78
2023/10/08 13:02:28;;;;;;;8.45;4.65;;;;;;;;;;5068022;28;20084;-75
2023/10/08 13:04:54;;;;;;;8.82;5.57;;;;;;;;;;5065464;28;20773;-76
2023/10/08 13:07:21;;;;;;;18.00;5.03;;;;;;;;;;5068821;28;20081;-76
2023/10/08 13:09:47;;;;;;;11.30;5.22;;;;;;;;;;5067321;28;20421;-77
2023/10/08 13:12:15;;;;;;;8.80;4.20;;;;;;;;;;5065584;28;20020;-75
2023/10/08 13:14:40;;;;;;;9.52;4.60;;;;;;;;;;5070070;28;20359;-80
2023/10/08 13:17:10;;;;;;;7.35;4.53;;;;;;;;;;5071814;28;20016;-74
2023/10/08 13:19:36;;;;;;;7.65;4.32;;;;;;;;;;5071156;28;21408;-73
2023/10/08 13:22:06;;;;;;;9.65;4.57;;;;;;;;;;5070376;28;20089;-77
2023/10/08 13:24:32;;;;;;;11.45;4.68;;;;;;;;;;5071692;28;20119;-75
2023/10/08 13:26:58;;;;;;;9.63;4.65;;;;;;;;;;5071655;28;20487;-75
2023/10/08 13:29:26;;;;;;;9.73;4.53;;;;;;;;;;5073507;28;20020;-75
2023/10/08 13:31:53;;;;;;;10.07;5.38;;;;;;;;;;5072223;28;20035;-75
2023/10/08 13:34:19;;;;;;;10.13;5.05;;;;;;;;;;5070694;28;20054;-76
2023/10/08 13:36:49;;;;;;;10.07;4.85;;;;;;;;;;5069388;28;20032;-73
2023/10/08 13:39:18;;;;;;;9.88;4.80;;;;;;;;;;5070532;28;20075;-77
2023/10/08 13:41:47;;;;;;;16.70;7.57;;;;;;;;;;5071403;28;20115;-74
2023/10/08 13:44:13;;;;;;;10.10;5.35;;;;;;;;;;5068800;28;20038;-75
2023/10/08 13:46:42;;;;;;;15.65;7.03;;;;;;;;;;5069768;28;20016;-76
2023/10/08 13:49:10;;;;;;;15.82;5.30;;;;;;;;;;5064930;28;20052;-73
2023/10/08 13:51:37;;;;;;;11.60;5.45;;;;;;;;;;5072805;28;20016;-81
2023/10/08 13:54:06;;;;;;;16.77;6.82;;;;;;;;;;5070644;28;20105;-77
2023/10/08 13:56:32;;;;;;;11.55;5.60;;;;;;;;;;5075785;28;20020;-76
2023/10/08 13:59:04;;;;;;;14.73;6.35;;;;;;;;;;5082304;28;20459;-75
2023/10/08 14:01:35;;;;;;;13.52;6.85;;;;;;;;;;5090038;28;20473;-76
2023/10/08 14:04:05;;;;;;;12.43;6.53;;;;;;;;;;5096996;28;20113;-75
2023/10/08 14:06:31;;;;;;;13.88;4.50;;;;;;;;;;5096500;28;20031;-76
2023/10/08 14:08:56;;;;;;;13.48;5.05;;;;;;;;;;5098821;28;20033;-75
2023/10/08 14:11:29;;;;;;;13.48;5.45;;;;;;;;;;5092751;28;20039;-73
2023/10/08 14:13:55;;;;;;;11.88;5.78;;;;;;;;;;5083304;28;20012;-74
2023/10/08 14:16:23;;;;;;;10.95;5.45;;;;;;;;;;5088780;28;20027;-76
2023/10/08 14:18:55;;;;;;;11.35;4.82;;;;;;;;;;5094558;28;20035;-73
2023/10/08 14:21:24;;;;;;;12.02;5.88;;;;;;;;;;5091216;28;20135;-77
2023/10/08 14:23:52;;;;;;;12.63;5.60;;;;;;;;;;5092940;28;20044;-75
2023/10/08 14:26:21;;;;;;;14.25;6.38;;;;;;;;;;5087842;28;20032;-77
2023/10/08 14:28:54;;;;;;;15.90;5.93;;;;;;;;;;5081592;28;20019;-77
2023/10/08 14:31:24;;;;;;;9.52;5.50;;;;;;;;;;5080546;28;20161;-78
2023/10/08 14:33:56;;;;;;;12.38;5.47;;;;;;;;;;5078386;28;20366;-79
2023/10/08 14:44:34;;;;;;;15.10;7.05;;;;;;;;;;5084172;28;20482;-77
2023/10/08 14:47:00;;;;;;;20.35;5.80;;;;;;;;;;5098045;28;20023;-75
2023/10/08 14:49:25;;;;;;;16.75;5.82;;;;;;;;;;5075899;28;20445;-79
2023/10/08 14:51:53;;;;;;;15.55;5.75;;;;;;;;;;5077017;28;20515;-76
2023/10/08 14:54:19;;;;;;;16.38;5.53;;;;;;;;;;5072583;28;20431;-76
2023/10/08 14:56:45;;;;;;;22.05;6.25;;;;;;;;;;5075494;28;20019;-76
2023/10/08 14:59:10;;;;;;;18.05;6.05;;;;;;;;;;5075560;28;20058;-76
2023/10/08 15:01:36;;;;;;;24.42;7.07;;;;;;;;;;5070732;28;20432;-76
2023/10/08 15:04:04;;;;;;;22.52;5.75;;;;;;;;;;5075888;28;20475;-76
2023/10/08 15:06:30;;;;;;;21.87;6.80;;;;;;;;;;5074230;28;20028;-77
2023/10/08 15:08:57;;;;;;;21.10;5.75;;;;;;;;;;5075836;28;20024;-75
2023/10/08 15:11:22;;;;;;;25.27;6.93;;;;;;;;;;5082880;28;20071;-78
2023/10/08 15:13:49;;;;;;;20.17;5.43;;;;;;;;;;5076110;28;20456;-75
2023/10/08 15:16:15;;;;;;;27.30;5.78;;;;;;;;;;5076036;28;20032;-76
2023/10/08 15:18:42;;;;;;;21.40;6.25;;;;;;;;;;5075843;28;20046;-75
2023/10/08 15:21:10;;;;;;;20.02;6.40;;;;;;;;;;5077436;28;20449;-77
2023/10/08 15:23:35;;;;;;;20.08;5.80;;;;;;;;;;5075311;28;20031;-79
2023/10/08 15:26:01;;;;;;;27.50;6.40;;;;;;;;;;5075365;28;20447;-76
2023/10/08 15:28:26;;;;;;;25.73;7.07;;;;;;;;;;5085195;28;20036;-78
2023/10/08 15:30:52;;;;;;;14.70;5.50;;;;;;;;;;5086033;28;20020;-75
2023/10/08 15:33:18;;;;;;;30.42;6.45;;;;;;;;;;5077191;28;20420;-74
2023/10/08 15:35:44;;;;;;;28.17;6.65;;;;;;;;;;5080068;28;20058;-74
2023/10/08 15:38:09;;;;;;;31.80;7.15;;;;;;;;;;5074938;28;20036;-74
2023/10/08 15:40:35;;;;;;;20.33;6.75;;;;;;;;;;5074074;28;20024;-74